Terminal Aerodrome Forecast
Issued by NWS

Home | Current Version | Previous Version | Text Only | Print | Product List | Glossary On
Versions: 1 2 3 4 5 6 7 8 9 10 11 12 13 14
000
FTUS43 KSGF 271800 AAA
TAFJLN
TAF AMD
KJLN 271856Z 2719/2818 36010G17KT P6SM VCSH SCT080 BKN120
     FM280000 34005KT P6SM SCT250
     FM281500 35010KT P6SM SKC=

USA.gov is the U.S. government's official web portal to all federal, state and local government web resources and services.